createdAt,value
2017-01-19T00:00:21.442Z,0
2017-01-19T00:01:21.858Z,0
2017-01-19T00:02:21.846Z,0
2017-01-19T00:03:22.258Z,0
2017-01-19T00:04:22.261Z,0
2017-01-19T00:05:21.837Z,0
2017-01-19T00:06:21.838Z,0
2017-01-19T00:07:20.997Z,0
2017-01-19T00:08:21.825Z,0
2017-01-19T00:09:20.993Z,0
2017-01-19T00:10:22.228Z,0
2017-01-19T00:11:22.220Z,0
2017-01-19T00:12:21.380Z,0
2017-01-19T00:13:20.972Z,0
2017-01-19T00:14:21.792Z,0
2017-01-19T00:15:22.195Z,0
2017-01-19T00:16:22.180Z,0
2017-01-19T00:17:21.364Z,0
2017-01-19T00:18:21.776Z,0
2017-01-19T00:19:22.180Z,0
2017-01-19T00:20:21.355Z,0
2017-01-19T00:21:21.339Z,0
2017-01-19T00:22:20.931Z,0
2017-01-19T00:23:21.755Z,0
2017-01-19T00:24:21.331Z,0
2017-01-19T00:25:21.743Z,0
2017-01-19T00:26:21.735Z,0
2017-01-19T00:27:21.723Z,0
2017-01-19T00:28:22.123Z,0
2017-01-19T00:29:21.307Z,0
2017-01-19T00:30:21.719Z,0
2017-01-19T00:31:21.711Z,0
2017-01-19T00:32:21.288Z,0
2017-01-19T00:33:22.106Z,0
2017-01-19T00:34:21.283Z,0
2017-01-19T00:35:22.351Z,0
2017-01-19T00:36:21.675Z,0
2017-01-19T00:37:21.683Z,0
2017-01-19T00:38:21.675Z,0
2017-01-19T00:39:21.667Z,0
2017-01-19T00:40:22.215Z,0
2017-01-19T00:41:22.075Z,0
2017-01-19T00:42:21.243Z,0
2017-01-19T00:43:21.234Z,0
2017-01-19T00:44:21.642Z,0
2017-01-19T00:45:21.218Z,0
2017-01-19T00:46:21.231Z,0
2017-01-19T00:47:20.802Z,0
2017-01-19T00:48:21.626Z,0
2017-01-19T00:49:21.214Z,0
2017-01-19T00:50:21.198Z,0
2017-01-19T00:51:21.202Z,0
2017-01-19T00:52:21.806Z,0
2017-01-19T00:53:21.186Z,0
2017-01-19T00:54:21.178Z,0
2017-01-19T00:55:20.761Z,0
2017-01-19T00:56:21.174Z,0
2017-01-19T00:57:21.178Z,0
2017-01-19T00:58:21.570Z,0
2017-01-19T00:59:21.567Z,0
2017-01-19T01:00:20.745Z,0
2017-01-19T01:01:21.161Z,0
2017-01-19T01:02:21.582Z,0
2017-01-19T01:03:21.142Z,0
2017-01-19T01:04:21.965Z,0
2017-01-19T01:05:21.137Z,0
2017-01-19T01:06:21.533Z,0
2017-01-19T01:07:21.529Z,0
2017-01-19T01:08:20.705Z,0
2017-01-19T01:09:21.517Z,0
2017-01-19T01:10:20.689Z,0
2017-01-19T01:11:21.513Z,0
2017-01-19T01:12:21.097Z,0
2017-01-19T01:13:21.077Z,0
2017-01-19T01:14:21.496Z,0
2017-01-19T01:15:21.493Z,0
2017-01-19T01:16:21.894Z,0
2017-01-19T01:17:21.472Z,0
2017-01-19T01:18:21.472Z,0
2017-01-19T01:19:21.876Z,0
2017-01-19T01:20:21.056Z,0
2017-01-19T01:21:21.873Z,0
2017-01-19T01:22:21.044Z,0
2017-01-19T01:23:21.040Z,0
2017-01-19T01:24:21.040Z,0
2017-01-19T01:25:21.032Z,0
2017-01-19T01:26:21.428Z,0
2017-01-19T01:27:21.436Z,0
2017-01-19T01:28:21.428Z,0
2017-01-19T01:29:21.440Z,0
2017-01-19T01:30:21.420Z,0
2017-01-19T01:31:21.404Z,0
2017-01-19T01:32:21.416Z,0
2017-01-19T01:33:21.404Z,0
2017-01-19T01:34:21.820Z,0
2017-01-19T01:35:21.392Z,0
2017-01-19T01:36:20.983Z,0
2017-01-19T01:37:21.404Z,0
2017-01-19T01:38:20.971Z,0
2017-01-19T01:39:21.375Z,0
2017-01-19T01:40:20.956Z,0
2017-01-19T01:41:20.940Z,0
2017-01-19T01:42:21.364Z,0
2017-01-19T01:43:21.760Z,0
2017-01-19T01:44:21.357Z,0
2017-01-19T01:45:20.925Z,0
2017-01-19T01:46:21.753Z,0
2017-01-19T01:47:21.753Z,0
2017-01-19T01:48:20.918Z,0
2017-01-19T01:49:21.334Z,0
2017-01-19T01:50:21.326Z,0
2017-01-19T01:51:21.327Z,0
2017-01-19T01:52:20.899Z,0
2017-01-19T01:53:20.899Z,0
2017-01-19T01:54:21.312Z,0
2017-01-19T01:55:21.300Z,0
2017-01-19T01:56:20.892Z,0
2017-01-19T01:57:21.705Z,0
2017-01-19T01:58:21.688Z,0
2017-01-19T01:59:21.681Z,0
2017-01-19T02:00:21.277Z,0
2017-01-19T02:01:20.865Z,0
2017-01-19T02:02:20.862Z,0
2017-01-19T02:03:21.666Z,0
2017-01-19T02:04:20.851Z,0
2017-01-19T02:05:21.255Z,0
2017-01-19T02:06:20.431Z,0
2017-01-19T02:07:20.823Z,0
2017-01-19T02:08:21.655Z,0
2017-01-19T02:09:20.411Z,0
2017-01-19T02:10:21.228Z,0
2017-01-19T02:11:20.404Z,0
2017-01-19T02:12:20.396Z,0
2017-01-19T02:13:20.801Z,0
2017-01-19T02:14:21.627Z,0
2017-01-19T02:15:20.385Z,0
2017-01-19T02:16:21.609Z,0
2017-01-19T02:17:20.778Z,0
2017-01-19T02:18:21.198Z,0
2017-01-19T02:19:21.599Z,0
2017-01-19T02:20:21.203Z,0
2017-01-19T02:21:21.743Z,0
2017-01-19T02:22:21.179Z,0
2017-01-19T02:23:20.760Z,0
2017-01-19T02:24:21.168Z,0
2017-01-19T02:25:21.565Z,0
2017-01-19T02:26:21.177Z,0
2017-01-19T02:27:20.745Z,0
2017-01-19T02:28:21.562Z,0
2017-01-19T02:29:21.138Z,0
2017-01-19T02:30:20.735Z,0
2017-01-19T02:31:20.723Z,0
2017-01-19T02:32:20.711Z,0
2017-01-19T02:33:20.708Z,0
2017-01-19T02:34:21.116Z,0
2017-01-19T02:35:21.128Z,0
2017-01-19T02:36:20.693Z,0
2017-01-19T02:37:21.101Z,0
2017-01-19T02:38:21.101Z,0
2017-01-19T02:39:20.686Z,0
2017-01-19T02:40:20.674Z,0
2017-01-19T02:41:20.682Z,0
2017-01-19T02:42:20.666Z,0
2017-01-19T02:43:21.087Z,0
2017-01-19T02:44:21.067Z,0
2017-01-19T02:45:21.067Z,0
2017-01-19T02:46:21.084Z,0
2017-01-19T02:47:20.240Z,0
2017-01-19T02:48:20.229Z,0
2017-01-19T02:49:21.045Z,0
2017-01-19T02:50:21.457Z,0
2017-01-19T02:51:20.637Z,0
2017-01-19T02:52:20.617Z,0
2017-01-19T02:53:21.434Z,0
2017-01-19T02:54:21.434Z,0
2017-01-19T02:55:21.022Z,0
2017-01-19T02:56:20.606Z,0
2017-01-19T02:57:21.418Z,0
2017-01-19T02:58:21.003Z,0
2017-01-19T02:59:20.587Z,0
2017-01-19T03:00:20.991Z,0
2017-01-19T03:01:20.171Z,0
2017-01-19T03:02:20.988Z,0
2017-01-19T03:03:20.568Z,0
2017-01-19T03:04:21.397Z,0
2017-01-19T03:05:20.965Z,0
2017-01-19T03:06:20.557Z,0
2017-01-19T03:07:21.165Z,0
2017-01-19T03:08:20.549Z,0
2017-01-19T03:09:20.545Z,0
2017-01-19T03:10:20.946Z,0
2017-01-19T03:11:20.930Z,0
2017-01-19T03:12:20.934Z,0
2017-01-19T03:13:20.110Z,0
2017-01-19T03:14:20.519Z,0
2017-01-19T03:15:20.099Z,0
2017-01-19T03:16:21.339Z,0
2017-01-19T03:17:20.099Z,0
2017-01-19T03:18:20.908Z,0
2017-01-19T03:19:20.084Z,0
2017-01-19T03:20:21.308Z,0
2017-01-19T03:21:20.476Z,0
2017-01-19T03:22:21.300Z,0
2017-01-19T03:23:20.887Z,0
2017-01-19T03:24:20.885Z,0
2017-01-19T03:25:21.293Z,0
2017-01-19T03:26:20.853Z,0
2017-01-19T03:27:20.053Z,0
2017-01-19T03:28:21.278Z,0
2017-01-19T03:29:21.278Z,0
2017-01-19T03:30:21.269Z,0
2017-01-19T03:31:20.442Z,0
2017-01-19T03:32:20.842Z,0
2017-01-19T03:33:21.246Z,0
2017-01-19T03:34:20.838Z,0
2017-01-19T03:35:20.425Z,0
2017-01-19T03:36:20.830Z,0
2017-01-19T03:37:21.018Z,0
2017-01-19T03:38:21.226Z,0
2017-01-19T03:39:19.986Z,0
2017-01-19T03:40:19.970Z,0
2017-01-19T03:41:20.391Z,0
2017-01-19T03:42:20.814Z,0
2017-01-19T03:43:20.791Z,0
2017-01-19T03:44:20.775Z,0
2017-01-19T03:45:20.766Z,0
2017-01-19T03:46:20.771Z,0
2017-01-19T03:47:20.767Z,0
2017-01-19T03:48:20.375Z,0
2017-01-19T03:49:20.755Z,0
2017-01-19T03:50:20.339Z,0
2017-01-19T03:51:21.416Z,0
2017-01-19T03:52:19.916Z,0
2017-01-19T03:53:20.324Z,0
2017-01-19T03:54:19.912Z,0
2017-01-19T03:55:20.308Z,0
2017-01-19T03:56:20.728Z,0
2017-01-19T03:57:20.304Z,0
2017-01-19T03:58:21.128Z,0
2017-01-19T03:59:20.716Z,0
2017-01-19T04:00:20.289Z,0
2017-01-19T04:01:20.701Z,0
2017-01-19T04:02:20.685Z,0
2017-01-19T04:03:20.697Z,0
2017-01-19T04:04:20.265Z,0
2017-01-19T04:05:20.689Z,0
2017-01-19T04:06:19.861Z,0
2017-01-19T04:07:20.269Z,0
2017-01-19T04:08:20.257Z,0
2017-01-19T04:09:20.659Z,0
2017-01-19T04:10:20.238Z,0
2017-01-19T04:11:20.658Z,0
2017-01-19T04:12:20.242Z,0
2017-01-19T04:13:20.642Z,0
2017-01-19T04:14:20.230Z,0
2017-01-19T04:15:20.634Z,0
2017-01-19T04:16:21.030Z,0
2017-01-19T04:17:20.214Z,0
2017-01-19T04:18:21.027Z,0
2017-01-19T04:19:20.203Z,0
2017-01-19T04:20:21.010Z,0
2017-01-19T04:21:20.603Z,0
2017-01-19T04:22:20.199Z,0
2017-01-19T04:23:20.175Z,0
2017-01-19T04:24:20.579Z,0
2017-01-19T04:25:20.175Z,0
2017-01-19T04:26:20.575Z,0
2017-01-19T04:27:20.984Z,0
2017-01-19T04:28:20.560Z,0
2017-01-19T04:29:20.976Z,0
2017-01-19T04:30:20.156Z,0
2017-01-19T04:31:20.704Z,0
2017-01-19T04:32:20.548Z,0
2017-01-19T04:33:19.724Z,0
2017-01-19T04:34:20.536Z,0
2017-01-19T04:35:20.525Z,0
2017-01-19T04:36:20.525Z,0
2017-01-19T04:37:20.108Z,0
2017-01-19T04:38:20.517Z,0
2017-01-19T04:39:20.098Z,0
2017-01-19T04:40:20.506Z,0
2017-01-19T04:41:20.098Z,0
2017-01-19T04:42:20.505Z,0
2017-01-19T04:43:20.498Z,0
2017-01-19T04:44:20.490Z,0
2017-01-19T04:45:20.070Z,0
2017-01-19T04:46:20.070Z,0
2017-01-19T04:47:20.475Z,0
2017-01-19T04:48:20.463Z,0
2017-01-19T04:49:20.047Z,0
2017-01-19T04:50:20.051Z,0
2017-01-19T04:51:20.455Z,0
2017-01-19T04:52:19.631Z,0
2017-01-19T04:53:20.447Z,0
2017-01-19T04:54:19.203Z,0
2017-01-19T04:55:20.431Z,0
2017-01-19T04:56:20.434Z,0
2017-01-19T04:57:20.830Z,0
2017-01-19T04:58:20.422Z,0
2017-01-19T04:59:20.409Z,0
2017-01-19T05:00:19.626Z,0
2017-01-19T05:01:19.989Z,0
2017-01-19T05:02:20.400Z,0
2017-01-19T05:03:20.796Z,0
2017-01-19T05:04:20.392Z,0
2017-01-19T05:05:20.376Z,0
2017-01-19T05:06:19.956Z,0
2017-01-19T05:07:20.364Z,0
2017-01-19T05:08:19.963Z,0
2017-01-19T05:09:20.775Z,0
2017-01-19T05:10:20.354Z,0
2017-01-19T05:11:19.938Z,0
2017-01-19T05:12:20.758Z,0
2017-01-19T05:13:20.758Z,0
2017-01-19T05:14:20.746Z,0
2017-01-19T05:15:20.325Z,0
2017-01-19T05:16:20.313Z,0
2017-01-19T05:17:20.737Z,0
2017-01-19T05:18:20.320Z,0
2017-01-19T05:19:19.488Z,0
2017-01-19T05:20:19.892Z,0
2017-01-19T05:21:20.860Z,0
2017-01-19T05:22:20.275Z,0
2017-01-19T05:23:19.875Z,0
2017-01-19T05:24:20.707Z,0
2017-01-19T05:25:19.863Z,0
2017-01-19T05:26:20.675Z,0
2017-01-19T05:27:20.267Z,0
2017-01-19T05:28:20.262Z,0
2017-01-19T05:29:20.250Z,0
2017-01-19T05:30:19.836Z,0
2017-01-19T05:31:20.249Z,0
2017-01-19T05:32:19.822Z,0
2017-01-19T05:33:20.642Z,0
2017-01-19T05:34:20.230Z,0
2017-01-19T05:35:20.638Z,0
2017-01-19T05:36:19.401Z,0
2017-01-19T05:37:20.630Z,0
2017-01-19T05:38:19.818Z,0
2017-01-19T05:39:19.797Z,0
2017-01-19T05:40:20.609Z,0
2017-01-19T05:41:19.778Z,0
2017-01-19T05:42:20.198Z,0
2017-01-19T05:43:20.178Z,0
2017-01-19T05:44:20.590Z,0
2017-01-19T05:45:20.589Z,0
2017-01-19T05:46:20.170Z,0
2017-01-19T05:47:19.773Z,0
2017-01-19T05:48:20.149Z,0
2017-01-19T05:49:20.149Z,0
2017-01-19T05:50:20.570Z,0
2017-01-19T05:51:20.145Z,0
2017-01-19T05:52:20.553Z,0
2017-01-19T05:53:20.125Z,0
2017-01-19T05:54:20.129Z,0
2017-01-19T05:55:19.718Z,0
2017-01-19T05:56:19.709Z,0
2017-01-19T05:57:19.705Z,0
2017-01-19T05:58:19.693Z,0
2017-01-19T05:59:20.113Z,0
2017-01-19T06:00:20.505Z,0
2017-01-19T06:01:19.271Z,0
2017-01-19T06:02:20.537Z,0
2017-01-19T06:03:20.497Z,0
2017-01-19T06:04:20.085Z,0
2017-01-19T06:05:19.665Z,0
2017-01-19T06:06:20.073Z,0
2017-01-19T06:07:20.065Z,0
2017-01-19T06:08:19.245Z,0
2017-01-19T06:09:20.465Z,0
2017-01-19T06:10:20.049Z,0
2017-01-19T06:11:20.037Z,0
2017-01-19T06:12:20.041Z,0
2017-01-19T06:13:20.057Z,0
2017-01-19T06:14:20.433Z,0
2017-01-19T06:15:19.617Z,0
2017-01-19T06:16:20.021Z,0
2017-01-19T06:17:20.010Z,0
2017-01-19T06:18:20.005Z,0
2017-01-19T06:19:20.009Z,0
2017-01-19T06:20:20.417Z,0
2017-01-19T06:21:20.405Z,0
2017-01-19T06:22:19.574Z,0
2017-01-19T06:23:19.986Z,0
2017-01-19T06:24:19.974Z,0
2017-01-19T06:25:19.970Z,0
2017-01-19T06:26:19.158Z,0
2017-01-19T06:27:20.525Z,0
2017-01-19T06:28:19.966Z,0
2017-01-19T06:29:19.957Z,0
2017-01-19T06:30:19.950Z,0
2017-01-19T06:31:19.946Z,0
2017-01-19T06:32:19.938Z,0
2017-01-19T06:33:19.526Z,0
2017-01-19T06:34:20.346Z,0
2017-01-19T06:35:20.338Z,0
2017-01-19T06:36:20.350Z,0
2017-01-19T06:37:19.506Z,0
2017-01-19T06:38:20.326Z,0
2017-01-19T06:39:19.930Z,0
2017-01-19T06:40:19.490Z,0
2017-01-19T06:41:19.894Z,0
2017-01-19T06:42:19.067Z,0
2017-01-19T06:43:19.886Z,0
2017-01-19T06:44:19.890Z,0
2017-01-19T06:45:19.467Z,0
2017-01-19T06:46:19.894Z,0
2017-01-19T06:47:19.446Z,0
2017-01-19T06:48:20.275Z,0
2017-01-19T06:49:19.447Z,0
2017-01-19T06:50:19.847Z,0
2017-01-19T06:51:19.434Z,0
2017-01-19T06:52:20.243Z,0
2017-01-19T06:53:19.831Z,0
2017-01-19T06:54:19.827Z,0
2017-01-19T06:55:19.407Z,0
2017-01-19T06:56:19.827Z,0
2017-01-19T06:57:19.403Z,0
2017-01-19T06:58:19.819Z,0
2017-01-19T06:59:20.219Z,0
2017-01-19T07:00:19.391Z,0
2017-01-19T07:01:20.211Z,0
2017-01-19T07:02:19.379Z,0
2017-01-19T07:03:19.791Z,0
2017-01-19T07:04:19.779Z,0
2017-01-19T07:05:19.775Z,0
2017-01-19T07:06:20.183Z,0
2017-01-19T07:07:19.355Z,0
2017-01-19T07:08:19.767Z,0
2017-01-19T07:09:19.343Z,0
2017-01-19T07:10:19.747Z,0
2017-01-19T07:11:19.331Z,5
2017-01-19T07:12:19.323Z,0
2017-01-19T07:13:19.324Z,5
2017-01-19T07:14:19.331Z,5
2017-01-19T07:15:19.724Z,5
2017-01-19T07:16:19.304Z,5
2017-01-19T07:17:20.155Z,5
2017-01-19T07:18:20.123Z,5
2017-01-19T07:19:20.120Z,5
2017-01-19T07:20:19.703Z,5
2017-01-19T07:21:19.696Z,5
2017-01-19T07:22:20.104Z,5
2017-01-19T07:23:19.271Z,5
2017-01-19T07:24:19.272Z,5
2017-01-19T07:25:19.675Z,10
2017-01-19T07:26:19.677Z,10
2017-01-19T07:27:19.416Z,10
2017-01-19T07:28:19.668Z,10
2017-01-19T07:29:19.664Z,10
2017-01-19T07:30:20.056Z,10
2017-01-19T07:31:18.421Z,10
2017-01-19T07:32:19.649Z,10
2017-01-19T07:33:20.044Z,15
2017-01-19T07:34:19.224Z,15
2017-01-19T07:35:19.215Z,15
2017-01-19T07:36:19.219Z,15
2017-01-19T07:37:19.623Z,15
2017-01-19T07:38:19.615Z,15
2017-01-19T07:39:20.027Z,15
2017-01-19T07:40:19.610Z,15
2017-01-19T07:41:19.599Z,15
2017-01-19T07:42:19.598Z,15
2017-01-19T07:43:19.594Z,15
2017-01-19T07:44:19.166Z,15
2017-01-19T07:45:19.166Z,15
2017-01-19T07:46:19.573Z,15
2017-01-19T07:47:19.986Z,15
2017-01-19T07:48:19.154Z,15
2017-01-19T07:49:19.565Z,15
2017-01-19T07:50:19.141Z,15
2017-01-19T07:51:19.149Z,15
2017-01-19T07:52:19.137Z,15
2017-01-19T07:53:19.957Z,15
2017-01-19T07:54:19.121Z,15
2017-01-19T07:55:19.937Z,15
2017-01-19T07:56:19.117Z,15
2017-01-19T07:57:19.521Z,20
2017-01-19T07:58:19.517Z,20
2017-01-19T07:59:19.921Z,20
2017-01-19T08:00:19.505Z,20
2017-01-19T08:01:19.090Z,20
2017-01-19T08:02:19.081Z,20
2017-01-19T08:03:19.077Z,20
2017-01-19T08:04:19.485Z,20
2017-01-19T08:05:19.889Z,20
2017-01-19T08:06:19.473Z,20
2017-01-19T08:07:19.069Z,20
2017-01-19T08:08:19.889Z,20
2017-01-19T08:09:19.041Z,25
2017-01-19T08:10:19.865Z,25
2017-01-19T08:11:19.869Z,25
2017-01-19T08:12:19.449Z,25
2017-01-19T08:13:19.033Z,25
2017-01-19T08:14:19.441Z,25
2017-01-19T08:15:19.850Z,25
2017-01-19T08:16:19.429Z,30
2017-01-19T08:17:20.220Z,30
2017-01-19T08:18:19.423Z,30
2017-01-19T08:19:18.993Z,30
2017-01-19T08:20:19.829Z,30
2017-01-19T08:21:19.405Z,30
2017-01-19T08:22:19.405Z,30
2017-01-19T08:23:18.989Z,30
2017-01-19T08:24:19.397Z,30
2017-01-19T08:25:19.797Z,30
2017-01-19T08:26:19.377Z,30
2017-01-19T08:27:19.377Z,30
2017-01-19T08:28:18.957Z,30
2017-01-19T08:29:18.141Z,30
2017-01-19T08:30:19.365Z,30
2017-01-19T08:31:18.945Z,30
2017-01-19T08:32:19.358Z,30
2017-01-19T08:33:19.353Z,30
2017-01-19T08:34:19.753Z,35
2017-01-19T08:35:19.345Z,35
2017-01-19T08:36:19.329Z,35
2017-01-19T08:37:19.321Z,35
2017-01-19T08:38:19.733Z,35
2017-01-19T08:39:19.310Z,35
2017-01-19T08:40:19.309Z,35
2017-01-19T08:41:19.309Z,35
2017-01-19T08:42:18.885Z,35
2017-01-19T08:43:19.717Z,35
2017-01-19T08:44:18.881Z,35
2017-01-19T08:45:18.885Z,40
2017-01-19T08:46:18.865Z,40
2017-01-19T08:47:18.862Z,40
2017-01-19T08:48:19.274Z,40
2017-01-19T08:49:19.273Z,40
2017-01-19T08:50:18.854Z,40
2017-01-19T08:51:18.854Z,40
2017-01-19T08:52:19.258Z,40
2017-01-19T08:53:18.842Z,40
2017-01-19T08:54:18.822Z,45
2017-01-19T08:55:18.834Z,45
2017-01-19T08:56:18.826Z,45
2017-01-19T08:57:19.238Z,45
2017-01-19T08:58:18.810Z,45
2017-01-19T08:59:19.634Z,45
2017-01-19T09:00:19.630Z,50
2017-01-19T09:01:19.218Z,50
2017-01-19T09:02:19.210Z,50
2017-01-19T09:03:19.214Z,55
2017-01-19T09:04:18.791Z,55
2017-01-19T09:05:18.771Z,55
2017-01-19T09:06:19.198Z,55
2017-01-19T09:07:19.602Z,55
2017-01-19T09:08:18.763Z,55
2017-01-19T09:09:18.775Z,60
2017-01-19T09:10:19.595Z,55
2017-01-19T09:11:19.163Z,55
2017-01-19T09:12:18.771Z,55
2017-01-19T09:13:19.159Z,55
2017-01-19T09:14:18.743Z,60
2017-01-19T09:15:19.147Z,55
2017-01-19T09:16:19.547Z,60
2017-01-19T09:17:18.723Z,60
2017-01-19T09:18:19.539Z,60
2017-01-19T09:19:19.155Z,60
2017-01-19T09:20:19.131Z,60
2017-01-19T09:21:19.118Z,60
2017-01-19T09:22:19.278Z,65
2017-01-19T09:23:18.290Z,65
2017-01-19T09:24:19.115Z,70
2017-01-19T09:25:19.110Z,70
2017-01-19T09:26:19.090Z,70
2017-01-19T09:27:18.906Z,70
2017-01-19T09:28:19.090Z,70
2017-01-19T09:29:19.494Z,70
2017-01-19T09:30:19.078Z,65
2017-01-19T09:31:18.661Z,65
2017-01-19T09:32:19.490Z,65
2017-01-19T09:33:18.657Z,65
2017-01-19T09:34:18.649Z,65
2017-01-19T09:35:19.061Z,65
2017-01-19T09:36:19.473Z,65
2017-01-19T09:37:18.649Z,65
2017-01-19T09:38:19.045Z,70
2017-01-19T09:39:18.625Z,70
2017-01-19T09:40:18.633Z,70
2017-01-19T09:41:19.041Z,70
2017-01-19T09:42:19.041Z,70
2017-01-19T09:43:19.029Z,70
2017-01-19T09:44:19.025Z,70
2017-01-19T09:45:19.425Z,75
2017-01-19T09:46:19.425Z,75
2017-01-19T09:47:19.005Z,70
2017-01-19T09:48:19.001Z,70
2017-01-19T09:49:19.001Z,75
2017-01-19T09:50:18.597Z,75
2017-01-19T09:51:18.997Z,75
2017-01-19T09:52:18.982Z,75
2017-01-19T09:53:19.401Z,75
2017-01-19T09:54:18.989Z,75
2017-01-19T09:55:18.974Z,75
2017-01-19T09:56:18.990Z,75
2017-01-19T09:57:18.970Z,75
2017-01-19T09:58:19.377Z,70
2017-01-19T09:59:18.957Z,75
2017-01-19T10:00:18.542Z,75
2017-01-19T10:01:18.942Z,75
2017-01-19T10:02:18.945Z,75
2017-01-19T10:03:19.346Z,75
2017-01-19T10:04:18.929Z,80
2017-01-19T10:05:18.521Z,75
2017-01-19T10:06:19.330Z,80
2017-01-19T10:07:18.913Z,80
2017-01-19T10:08:18.914Z,80
2017-01-19T10:09:18.094Z,80
2017-01-19T10:10:18.502Z,85
2017-01-19T10:11:18.486Z,80
2017-01-19T10:12:19.314Z,80
2017-01-19T10:13:19.314Z,80
2017-01-19T10:14:18.102Z,80
2017-01-19T10:15:19.306Z,80
2017-01-19T10:16:18.910Z,80
2017-01-19T10:17:18.062Z,80
2017-01-19T10:18:19.290Z,80
2017-01-19T10:19:18.871Z,80
2017-01-19T10:20:18.047Z,85
2017-01-19T10:21:18.871Z,85
2017-01-19T10:22:18.043Z,85
2017-01-19T10:23:18.446Z,85
2017-01-19T10:24:18.439Z,85
2017-01-19T10:25:19.263Z,85
2017-01-19T10:26:18.439Z,85
2017-01-19T10:27:18.435Z,90
2017-01-19T10:28:50.483Z,90
2017-01-19T10:29:19.251Z,90
2017-01-19T10:30:18.415Z,90
2017-01-19T10:31:18.847Z,90
2017-01-19T10:32:18.828Z,90
2017-01-19T10:33:19.239Z,90
2017-01-19T10:34:19.232Z,90
2017-01-19T10:35:18.403Z,90
2017-01-19T10:36:18.808Z,90
2017-01-19T10:37:17.580Z,90
2017-01-19T10:38:18.832Z,90
2017-01-19T10:39:18.795Z,85
2017-01-19T10:40:18.788Z,90
2017-01-19T10:41:19.200Z,90
2017-01-19T10:42:18.788Z,90
2017-01-19T10:43:18.512Z,90
2017-01-19T10:44:18.356Z,95
2017-01-19T10:45:19.188Z,95
2017-01-19T10:46:18.764Z,95
2017-01-19T10:47:18.772Z,95
2017-01-19T10:48:19.176Z,95
2017-01-19T10:49:18.345Z,95
2017-01-19T10:50:19.164Z,95
2017-01-19T10:51:18.342Z,95
2017-01-19T10:52:18.748Z,95
2017-01-19T10:53:18.749Z,95
2017-01-19T10:54:18.737Z,95
2017-01-19T10:55:19.145Z,95
2017-01-19T10:56:18.325Z,95
2017-01-19T10:57:18.313Z,95
2017-01-19T10:58:19.137Z,95
2017-01-19T10:59:18.721Z,95
2017-01-19T11:00:19.125Z,95
2017-01-19T11:01:18.713Z,95
2017-01-19T11:02:18.298Z,95
2017-01-19T11:03:19.118Z,95
2017-01-19T11:04:17.894Z,95
2017-01-19T11:05:18.702Z,95
2017-01-19T11:06:18.702Z,95
2017-01-19T11:07:17.462Z,95
2017-01-19T11:08:17.866Z,90
2017-01-19T11:09:18.270Z,90
2017-01-19T11:10:19.090Z,90
2017-01-19T11:11:18.674Z,90
2017-01-19T11:12:18.262Z,90
2017-01-19T11:13:17.846Z,90
2017-01-19T11:14:17.846Z,90
2017-01-19T11:15:18.662Z,90
2017-01-19T11:16:18.242Z,90
2017-01-19T11:17:19.071Z,90
2017-01-19T11:18:18.247Z,90
2017-01-19T11:19:18.651Z,95
2017-01-19T11:20:18.631Z,95
2017-01-19T11:21:19.051Z,95
2017-01-19T11:22:18.235Z,95
2017-01-19T11:23:18.219Z,95
2017-01-19T11:24:18.627Z,95
2017-01-19T11:25:18.632Z,90
2017-01-19T11:26:18.628Z,90
2017-01-19T11:27:18.621Z,90
2017-01-19T11:28:18.200Z,90
2017-01-19T11:29:19.020Z,90
2017-01-19T11:30:18.616Z,90
2017-01-19T11:31:18.188Z,90
2017-01-19T11:32:18.181Z,90
2017-01-19T11:33:18.600Z,90
2017-01-19T11:34:18.997Z,95
2017-01-19T11:35:18.589Z,95
2017-01-19T11:36:18.585Z,95
2017-01-19T11:37:18.577Z,95
2017-01-19T11:38:18.578Z,95
2017-01-19T11:39:18.981Z,95
2017-01-19T11:40:18.169Z,95
2017-01-19T11:41:18.990Z,95
2017-01-19T11:42:18.562Z,95
2017-01-19T11:43:18.562Z,95
2017-01-19T11:44:18.558Z,100
2017-01-19T11:45:18.554Z,100
2017-01-19T11:46:18.966Z,100
2017-01-19T11:47:18.130Z,100
2017-01-19T11:48:18.538Z,100
2017-01-19T11:49:18.134Z,100
2017-01-19T11:50:18.947Z,100
2017-01-19T11:51:17.754Z,100
2017-01-19T11:52:18.527Z,100
2017-01-19T11:53:17.855Z,100
2017-01-19T11:54:18.923Z,105
2017-01-19T11:55:18.107Z,105
2017-01-19T11:56:18.523Z,105
2017-01-19T11:57:18.507Z,105
2017-01-19T11:58:18.511Z,100
2017-01-19T11:59:17.680Z,100
2017-01-19T12:00:18.504Z,100
2017-01-19T12:01:18.505Z,100
2017-01-19T12:02:18.904Z,95
2017-01-19T12:03:18.496Z,95
2017-01-19T12:04:17.680Z,95
2017-01-19T12:05:18.064Z,95
2017-01-19T12:06:18.075Z,95
2017-01-19T12:07:18.481Z,95
2017-01-19T12:08:18.477Z,95
2017-01-19T12:09:18.473Z,100
2017-01-19T12:10:18.465Z,100
2017-01-19T12:11:17.645Z,100
2017-01-19T12:12:18.053Z,100
2017-01-19T12:13:18.609Z,100
2017-01-19T12:14:18.873Z,95
2017-01-19T12:15:18.049Z,95
2017-01-19T12:16:18.454Z,95
2017-01-19T12:17:18.450Z,95
2017-01-19T12:18:18.849Z,95
2017-01-19T12:19:18.442Z,95
2017-01-19T12:20:18.022Z,95
2017-01-19T12:21:18.454Z,95
2017-01-19T12:22:17.606Z,95
2017-01-19T12:23:18.426Z,95
2017-01-19T12:24:18.430Z,100
2017-01-19T12:25:18.834Z,95
2017-01-19T12:26:18.419Z,100
2017-01-19T12:27:17.591Z,95
2017-01-19T12:28:18.826Z,95
2017-01-19T12:29:18.399Z,95
2017-01-19T12:30:18.819Z,95
2017-01-19T12:31:17.995Z,95
2017-01-19T12:32:17.991Z,95
2017-01-19T12:33:18.394Z,95
2017-01-19T12:34:18.398Z,95
2017-01-19T12:35:18.807Z,95
2017-01-19T12:36:18.378Z,100
2017-01-19T12:37:17.978Z,100
2017-01-19T12:38:18.530Z,100
2017-01-19T12:39:17.550Z,100
2017-01-19T12:40:17.950Z,100
2017-01-19T12:41:17.133Z,95
2017-01-19T12:42:17.949Z,95
2017-01-19T12:43:17.949Z,95
2017-01-19T12:44:18.765Z,95
2017-01-19T12:45:17.941Z,95
2017-01-19T12:46:17.949Z,90
2017-01-19T12:47:17.941Z,90
2017-01-19T12:48:17.941Z,90
2017-01-19T12:49:18.345Z,90
2017-01-19T12:50:18.741Z,90
2017-01-19T12:51:18.749Z,90
2017-01-19T12:52:18.739Z,90
2017-01-19T12:53:17.921Z,90
2017-01-19T12:54:17.513Z,90
2017-01-19T12:55:18.325Z,90
2017-01-19T12:56:17.905Z,90
2017-01-19T12:57:18.321Z,90
2017-01-19T12:58:18.597Z,90
2017-01-19T12:59:18.317Z,85
2017-01-19T13:00:18.305Z,85
2017-01-19T13:01:18.713Z,85
2017-01-19T13:02:17.889Z,85
2017-01-19T13:03:18.445Z,85
2017-01-19T13:04:18.705Z,85
2017-01-19T13:05:18.694Z,85
2017-01-19T13:06:17.873Z,80
2017-01-19T13:07:18.692Z,80
2017-01-19T13:08:17.869Z,80
2017-01-19T13:09:17.869Z,80
2017-01-19T13:10:18.273Z,75
2017-01-19T13:11:18.265Z,75
2017-01-19T13:12:17.849Z,75
2017-01-19T13:13:18.293Z,70
2017-01-19T13:14:18.669Z,70
2017-01-19T13:15:17.845Z,75
2017-01-19T13:16:17.842Z,75
2017-01-19T13:17:18.254Z,75
2017-01-19T13:18:18.241Z,75
2017-01-19T13:19:17.830Z,75
2017-01-19T13:20:18.233Z,75
2017-01-19T13:21:17.821Z,75
2017-01-19T13:22:18.638Z,75
2017-01-19T13:23:18.230Z,75
2017-01-19T13:24:18.634Z,75
2017-01-19T13:25:17.810Z,75
2017-01-19T13:26:18.241Z,75
2017-01-19T13:27:17.806Z,75
2017-01-19T13:28:17.793Z,70
2017-01-19T13:29:18.230Z,70
2017-01-19T13:30:17.794Z,70
2017-01-19T13:31:18.201Z,70
2017-01-19T13:32:18.194Z,70
2017-01-19T13:33:18.602Z,70
2017-01-19T13:34:18.198Z,65
2017-01-19T13:35:17.783Z,65
2017-01-19T13:36:18.590Z,65
2017-01-19T13:37:18.594Z,65
2017-01-19T13:38:18.578Z,65
2017-01-19T13:39:18.594Z,60
2017-01-19T13:40:18.171Z,60
2017-01-19T13:41:17.755Z,60
2017-01-19T13:42:18.182Z,60
2017-01-19T13:43:17.750Z,60
2017-01-19T13:44:17.750Z,60
2017-01-19T13:45:17.742Z,60
2017-01-19T13:46:18.154Z,60
2017-01-19T13:47:18.154Z,60
2017-01-19T13:48:17.317Z,60
2017-01-19T13:49:18.146Z,55
2017-01-19T13:50:18.549Z,55
2017-01-19T13:51:18.133Z,55
2017-01-19T13:52:18.121Z,55
2017-01-19T13:53:17.741Z,55
2017-01-19T13:54:18.113Z,55
2017-01-19T13:55:18.121Z,55
2017-01-19T13:56:18.117Z,55
2017-01-19T13:57:17.701Z,55
2017-01-19T13:58:18.101Z,50
2017-01-19T13:59:18.534Z,50
2017-01-19T14:00:18.105Z,50
2017-01-19T14:01:18.501Z,50
2017-01-19T14:02:18.091Z,50
2017-01-19T14:03:17.689Z,50
2017-01-19T14:04:17.673Z,50
2017-01-19T14:05:17.265Z,50
2017-01-19T14:06:18.077Z,50
2017-01-19T14:07:17.665Z,50
2017-01-19T14:08:18.069Z,50
2017-01-19T14:09:18.477Z,50
2017-01-19T14:10:17.653Z,50
2017-01-19T14:11:18.473Z,50
2017-01-19T14:12:18.465Z,50
2017-01-19T14:13:17.649Z,45
2017-01-19T14:14:17.649Z,45
2017-01-19T14:15:18.045Z,45
2017-01-19T14:16:17.629Z,45
2017-01-19T14:17:17.633Z,45
2017-01-19T14:18:18.030Z,45
2017-01-19T14:19:18.066Z,45
2017-01-19T14:20:18.025Z,45
2017-01-19T14:21:18.025Z,40
2017-01-19T14:22:18.014Z,40
2017-01-19T14:23:17.614Z,45
2017-01-19T14:24:17.602Z,40
2017-01-19T14:25:18.009Z,40
2017-01-19T14:26:17.593Z,40
2017-01-19T14:27:18.422Z,40
2017-01-19T14:28:18.413Z,40
2017-01-19T14:29:17.578Z,40
2017-01-19T14:30:17.582Z,35